Time;durP1;ratioP1;P1;durP2;ratioP2;P2;SDS_P1;SDS_P2;PMS_P1;PMS_P2;Temp;Humidity;BMP_temperature;BMP_pressure;BME280_temperature;BME280_humidity;BME280_pressure;Samples;Min_cycle;Max_cycle;Signal;HPM_P1;HPM_P2
2022/08/02 00:01:41;;;;;;;8.27;3.78;;;15.20;99.90;;;;;;5033714;28;20418;-63
2022/08/02 00:04:07;;;;;;;9.10;3.63;;;15.20;99.90;;;;;;5051503;28;20045;-63
2022/08/02 00:06:33;;;;;;;7.63;3.63;;;15.10;99.90;;;;;;5030450;28;20056;-63
2022/08/02 00:08:59;;;;;;;10.48;3.33;;;15.10;99.90;;;;;;5032591;28;20067;-63
2022/08/02 00:11:25;;;;;;;7.80;3.28;;;15.10;99.90;;;;;;5051784;28;20041;-63
2022/08/02 00:13:51;;;;;;;9.88;3.50;;;15.10;99.90;;;;;;5051446;28;20539;-63
2022/08/02 00:16:16;;;;;;;6.07;2.92;;;15.00;99.90;;;;;;5031154;28;20041;-63
2022/08/02 00:18:43;;;;;;;8.55;3.50;;;15.00;99.90;;;;;;5030438;28;20463;-63
2022/08/02 00:21:09;;;;;;;10.43;3.55;;;14.90;99.90;;;;;;5034343;28;20048;-63
2022/08/02 00:23:34;;;;;;;9.32;3.50;;;14.90;99.90;;;;;;5047471;28;20076;-63
2022/08/02 00:26:00;;;;;;;7.68;3.33;;;14.90;99.90;;;;;;5042581;28;20033;-63
2022/08/02 00:28:25;;;;;;;10.25;3.63;;;14.80;99.90;;;;;;5052309;28;20045;-63
2022/08/02 00:30:51;;;;;;;10.38;3.45;;;14.80;99.90;;;;;;5037053;28;20484;-63
2022/08/02 00:33:17;;;;;;;8.55;3.17;;;14.80;99.90;;;;;;5037506;28;20045;-64
2022/08/02 00:35:46;;;;;;;11.82;3.22;;;14.80;99.90;;;;;;5047032;28;20120;-63
2022/08/02 00:38:12;;;;;;;9.20;3.50;;;14.70;99.90;;;;;;5048336;28;20044;-63
2022/08/02 00:40:37;;;;;;;8.60;3.28;;;14.60;99.90;;;;;;5023032;28;20083;-62
2022/08/02 00:43:09;;;;;;;9.13;3.40;;;14.70;99.90;;;;;;5036947;28;20041;-63
2022/08/02 00:45:37;;;;;;;10.23;3.42;;;14.60;99.90;;;;;;5029138;28;20100;-63
2022/08/02 00:48:04;;;;;;;7.25;3.40;;;14.60;99.90;;;;;;5045457;28;20045;-63
2022/08/02 00:50:30;;;;;;;6.78;2.72;;;14.50;99.90;;;;;;5014384;28;20056;-63
2022/08/02 00:52:56;;;;;;;8.95;4.03;;;14.50;99.90;;;;;;5032718;28;20064;-63
2022/08/02 00:55:22;;;;;;;7.07;2.85;;;14.50;99.90;;;;;;5031404;28;20389;-62
2022/08/02 00:57:48;;;;;;;6.90;3.00;;;14.40;99.90;;;;;;5030223;28;20068;-62
2022/08/02 01:00:14;;;;;;;10.93;3.20;;;14.30;99.90;;;;;;5017294;28;20120;-62
2022/08/02 01:02:40;;;;;;;10.05;3.78;;;14.30;99.90;;;;;;5035216;28;20039;-63
2022/08/02 01:05:06;;;;;;;12.77;4.20;;;14.40;99.90;;;;;;5032931;28;20041;-62
2022/08/02 01:07:32;;;;;;;6.80;3.28;;;14.30;99.90;;;;;;5051427;28;20373;-63
2022/08/02 01:09:59;;;;;;;9.02;3.30;;;14.20;99.90;;;;;;5044477;28;20045;-62
2022/08/02 01:12:25;;;;;;;8.93;3.22;;;14.20;99.90;;;;;;4999804;28;20052;-62
2022/08/02 01:14:54;;;;;;;9.98;3.38;;;14.20;99.90;;;;;;5014031;28;20060;-61
2022/08/02 01:17:31;;;;;;;9.10;3.10;;;14.10;99.90;;;;;;5019163;28;20121;-63
2022/08/02 01:20:04;;;;;;;9.55;3.63;;;14.10;99.90;;;;;;5017086;28;20427;-62
2022/08/02 01:22:48;;;;;;;12.00;3.73;;;14.10;99.90;;;;;;5002204;28;20092;-62
2022/08/02 01:25:22;;;;;;;8.93;3.47;;;14.10;99.90;;;;;;5021405;28;20281;-62
2022/08/02 01:28:00;;;;;;;8.20;3.28;;;14.10;99.90;;;;;;5019953;28;20042;-62
2022/08/02 01:30:28;;;;;;;9.80;3.40;;;14.00;99.90;;;;;;5015297;28;20390;-62
2022/08/02 01:32:58;;;;;;;7.18;3.90;;;14.00;99.90;;;;;;4982905;28;20034;-62
2022/08/02 01:35:32;;;;;;;9.77;3.72;;;14.00;99.90;;;;;;5015975;28;20357;-62
2022/08/02 01:38:10;;;;;;;9.55;3.65;;;14.00;99.90;;;;;;5017834;28;20045;-62
2022/08/02 01:40:38;;;;;;;7.22;3.47;;;14.00;99.90;;;;;;5020310;28;20069;-62
2022/08/02 01:43:06;;;;;;;9.93;4.15;;;14.00;99.90;;;;;;5014652;28;20030;-62
2022/08/02 01:45:38;;;;;;;12.75;3.45;;;13.90;99.90;;;;;;5022457;28;20090;-62
2022/08/02 01:48:05;;;;;;;9.85;4.15;;;13.90;99.90;;;;;;5037899;28;20053;-62
2022/08/02 01:50:34;;;;;;;9.57;3.67;;;13.90;99.90;;;;;;5033520;28;20403;-62
2022/08/02 01:53:05;;;;;;;10.98;4.45;;;13.90;99.90;;;;;;5016058;28;20531;-62
2022/08/02 01:55:38;;;;;;;8.98;4.25;;;13.90;99.90;;;;;;5014541;28;20041;-62
2022/08/02 01:58:06;;;;;;;8.45;4.30;;;13.80;99.90;;;;;;5033285;28;20033;-63
2022/08/02 02:00:38;;;;;;;11.70;4.68;;;13.70;99.90;;;;;;5028912;28;20048;-62
2022/08/02 02:03:07;;;;;;;9.25;4.35;;;13.70;99.90;;;;;;5033528;28;20033;-62
2022/08/02 02:05:35;;;;;;;13.75;4.38;;;13.70;99.90;;;;;;5010499;28;20113;-63
2022/08/02 02:08:04;;;;;;;8.20;4.40;;;13.70;99.90;;;;;;5015609;28;20084;-63
2022/08/02 02:10:32;;;;;;;11.02;4.43;;;13.60;99.90;;;;;;5032916;28;20501;-64
2022/08/02 02:13:03;;;;;;;8.48;4.65;;;13.70;99.90;;;;;;5028121;28;20048;-62
2022/08/02 02:15:30;;;;;;;12.13;4.72;;;13.70;99.90;;;;;;5031362;28;20057;-62
2022/08/02 02:17:59;;;;;;;9.00;4.40;;;13.60;99.90;;;;;;5024598;28;20045;-62
2022/08/02 02:20:24;;;;;;;11.07;4.47;;;13.70;99.90;;;;;;5028448;28;20134;-62
2022/08/02 02:22:51;;;;;;;9.25;4.13;;;13.60;99.90;;;;;;5032714;28;20076;-62
2022/08/02 02:25:20;;;;;;;13.27;4.63;;;13.60;99.90;;;;;;5047658;28;20063;-64
2022/08/02 02:27:53;;;;;;;14.75;4.80;;;13.60;99.90;;;;;;5044211;28;20051;-62
2022/08/02 02:30:19;;;;;;;10.02;4.65;;;13.60;99.90;;;;;;5030469;28;20056;-66
2022/08/02 02:32:48;;;;;;;10.63;4.75;;;13.60;99.90;;;;;;5015645;28;20123;-63
2022/08/02 02:35:16;;;;;;;13.63;5.25;;;13.50;99.90;;;;;;5030189;28;20549;-62
2022/08/02 02:37:43;;;;;;;9.60;4.80;;;13.50;99.90;;;;;;5022336;28;20041;-63
2022/08/02 02:40:11;;;;;;;13.73;5.13;;;13.50;99.90;;;;;;5048306;28;20052;-63
2022/08/02 02:42:38;;;;;;;9.18;4.60;;;13.50;99.90;;;;;;5052650;28;20052;-63
2022/08/02 02:45:05;;;;;;;10.25;4.50;;;13.50;99.90;;;;;;5037883;28;20067;-62
2022/08/02 02:47:33;;;;;;;10.77;4.53;;;13.50;99.90;;;;;;5024642;28;20126;-62
2022/08/02 02:50:00;;;;;;;8.98;5.00;;;13.50;99.90;;;;;;5052549;28;20083;-62
2022/08/02 02:52:25;;;;;;;9.00;5.07;;;13.50;99.90;;;;;;5038627;28;20033;-63
2022/08/02 02:54:52;;;;;;;10.95;4.80;;;13.40;99.90;;;;;;5034637;28;20044;-62
2022/08/02 02:57:19;;;;;;;9.25;4.20;;;13.40;99.90;;;;;;5048163;28;20473;-63
2022/08/02 02:59:46;;;;;;;11.80;4.80;;;13.40;99.90;;;;;;5025072;28;20071;-63
2022/08/02 03:02:12;;;;;;;10.18;4.60;;;13.40;99.90;;;;;;5030979;28;20045;-63
2022/08/02 03:04:40;;;;;;;11.15;5.25;;;13.40;99.90;;;;;;5020288;28;20381;-62
2022/08/02 03:07:07;;;;;;;9.70;4.57;;;13.50;99.90;;;;;;5046288;28;20063;-63
2022/08/02 03:09:33;;;;;;;10.52;4.63;;;13.50;99.90;;;;;;5015111;28;20124;-62
2022/08/02 03:11:58;;;;;;;13.35;5.22;;;13.50;99.90;;;;;;5043704;28;20125;-62
2022/08/02 03:14:25;;;;;;;8.80;4.70;;;13.50;99.90;;;;;;5030046;28;20389;-63
2022/08/02 03:16:52;;;;;;;10.23;4.43;;;13.40;99.90;;;;;;5018148;28;20053;-62
2022/08/02 03:19:20;;;;;;;9.25;4.90;;;13.50;99.90;;;;;;5052009;28;20032;-63
2022/08/02 03:21:48;;;;;;;8.10;4.50;;;13.30;99.90;;;;;;5043610;28;20052;-63
2022/08/02 03:24:14;;;;;;;10.40;4.70;;;13.50;99.90;;;;;;5045942;28;20041;-62
2022/08/02 03:26:40;;;;;;;12.85;5.25;;;13.40;99.90;;;;;;5026944;28;20100;-63
2022/08/02 03:29:07;;;;;;;10.93;5.47;;;13.40;99.90;;;;;;5051805;28;20477;-63
2022/08/02 03:31:34;;;;;;;9.60;4.93;;;13.30;99.90;;;;;;5005921;28;20095;-62
2022/08/02 03:34:01;;;;;;;9.43;4.50;;;13.40;99.90;;;;;;5031596;28;20092;-62
2022/08/02 03:36:30;;;;;;;7.82;4.20;;;13.30;99.90;;;;;;5030418;28;20041;-63
2022/08/02 03:38:58;;;;;;;11.73;4.68;;;13.30;99.90;;;;;;5051122;28;20052;-63
2022/08/02 03:41:24;;;;;;;9.55;4.32;;;13.30;99.90;;;;;;5051636;28;20080;-63
2022/08/02 03:43:51;;;;;;;10.55;4.38;;;13.30;99.90;;;;;;5033792;28;20041;-62
2022/08/02 03:46:20;;;;;;;9.57;4.50;;;13.20;99.90;;;;;;5022568;28;20124;-63
2022/08/02 03:48:48;;;;;;;9.05;4.43;;;13.20;99.90;;;;;;5031363;28;20041;-62
2022/08/02 03:51:14;;;;;;;9.23;4.43;;;13.30;99.90;;;;;;5013903;28;20418;-62
2022/08/02 03:53:41;;;;;;;6.97;4.13;;;13.40;99.90;;;;;;5028430;28;20108;-64
2022/08/02 03:56:07;;;;;;;18.35;5.90;;;13.40;99.90;;;;;;5022493;28;20120;-63
2022/08/02 03:58:33;;;;;;;10.95;4.32;;;13.30;99.90;;;;;;5034244;28;20044;-63
2022/08/02 04:00:59;;;;;;;8.18;4.43;;;13.40;99.90;;;;;;5050838;28;20030;-63
2022/08/02 04:03:25;;;;;;;10.15;4.82;;;13.40;99.90;;;;;;5001595;28;20470;-63
2022/08/02 04:05:51;;;;;;;8.88;4.30;;;13.40;99.90;;;;;;5026513;28;20102;-62
2022/08/02 04:08:17;;;;;;;12.70;4.18;;;13.30;99.90;;;;;;5046013;28;20049;-63
2022/08/02 04:13:30;;;;;;;9.75;4.32;;;13.40;99.90;;;;;;5044423;28;20103;-62
2022/08/02 04:16:03;;;;;;;13.07;4.50;;;13.50;99.90;;;;;;5023718;28;20478;-63
2022/08/02 04:18:36;;;;;;;9.80;4.57;;;13.40;99.90;;;;;;5035545;28;20029;-63
2022/08/02 04:21:04;;;;;;;11.10;4.57;;;13.50;99.90;;;;;;5037196;28;20470;-62
2022/08/02 04:23:33;;;;;;;11.65;4.68;;;13.50;99.90;;;;;;5033445;28;20452;-62
2022/08/02 04:26:00;;;;;;;10.07;4.05;;;13.50;99.90;;;;;;5045532;28;20049;-62
2022/08/02 04:28:27;;;;;;;9.63;3.97;;;13.50;99.90;;;;;;5034228;28;20044;-62
2022/08/02 04:30:54;;;;;;;9.32;4.00;;;13.60;99.90;;;;;;5028171;28;20054;-62
2022/08/02 04:33:20;;;;;;;12.75;4.47;;;13.60;99.90;;;;;;5035431;28;20459;-62
2022/08/02 04:35:45;;;;;;;8.95;4.28;;;13.60;99.90;;;;;;5047148;28;20079;-63
2022/08/02 04:38:13;;;;;;;9.93;4.65;;;13.70;99.90;;;;;;5035245;28;20033;-62
2022/08/02 04:40:39;;;;;;;10.25;4.20;;;13.70;99.90;;;;;;5022754;28;20561;-62
2022/08/02 04:43:05;;;;;;;10.85;4.60;;;13.70;99.90;;;;;;5054500;28;20075;-62
2022/08/02 04:45:31;;;;;;;12.65;4.70;;;13.80;99.90;;;;;;5015284;28;20049;-62
2022/08/02 04:47:56;;;;;;;7.72;4.45;;;13.90;99.90;;;;;;5024497;28;20370;-62
2022/08/02 04:50:22;;;;;;;9.63;4.50;;;14.20;99.90;;;;;;5000705;28;20041;-62
2022/08/02 04:52:48;;;;;;;10.55;4.75;;;14.20;99.90;;;;;;5034653;28;20468;-63
2022/08/02 04:55:13;;;;;;;7.90;4.13;;;14.40;99.90;;;;;;5015209;28;20478;-62
2022/08/02 04:58:00;;;;;;;11.00;4.65;;;14.30;99.90;;;;;;5034045;28;20077;-62
2022/08/02 05:00:27;;;;;;;11.98;4.50;;;14.20;99.90;;;;;;5033496;28;20286;-63
2022/08/02 05:02:54;;;;;;;12.95;4.53;;;14.30;99.90;;;;;;5034521;28;20033;-62
2022/08/02 05:05:20;;;;;;;7.75;4.25;;;14.40;99.90;;;;;;5021887;28;20042;-62
2022/08/02 05:07:46;;;;;;;10.25;4.43;;;14.70;99.90;;;;;;5021166;28;20111;-63
2022/08/02 05:10:11;;;;;;;8.80;3.80;;;15.10;99.90;;;;;;5024941;28;20064;-62
2022/08/02 05:12:38;;;;;;;9.30;4.45;;;15.60;99.90;;;;;;5027313;28;20141;-62
2022/08/02 05:15:04;;;;;;;8.63;4.43;;;16.20;99.90;;;;;;5025335;28;20038;-63
2022/08/02 05:17:30;;;;;;;13.38;4.50;;;16.80;99.90;;;;;;5028713;28;20501;-63
2022/08/02 05:19:56;;;;;;;10.30;3.75;;;17.40;99.90;;;;;;5033179;28;20045;-62
2022/08/02 05:22:22;;;;;;;8.02;3.50;;;17.90;99.90;;;;;;5033557;28;20101;-63
2022/08/02 05:24:47;;;;;;;8.35;4.22;;;18.40;99.90;;;;;;5016233;28;20550;-64
2022/08/02 05:27:13;;;;;;;7.32;3.72;;;18.70;99.90;;;;;;5019885;28;20486;-66
2022/08/02 05:29:40;;;;;;;6.50;3.20;;;19.10;99.90;;;;;;5017844;28;20447;-65
2022/08/02 05:32:06;;;;;;;8.82;3.58;;;19.40;99.90;;;;;;5006686;28;20191;-63
2022/08/02 05:34:31;;;;;;;7.95;3.30;;;19.70;99.90;;;;;;5032745;28;20422;-62
2022/08/02 05:36:57;;;;;;;6.57;3.22;;;20.10;99.90;;;;;;5014278;28;20121;-63
2022/08/02 05:39:23;;;;;;;7.55;3.20;;;20.20;99.90;;;;;;5014572;28;20052;-63
2022/08/02 05:41:48;;;;;;;8.25;3.15;;;20.50;99.90;;;;;;5032447;28;20060;-63
2022/08/02 05:44:14;;;;;;;8.40;3.17;;;20.80;99.90;;;;;;5026783;28;20235;-66
2022/08/02 05:46:39;;;;;;;9.95;3.45;;;20.90;99.90;;;;;;5032039;28;20116;-63
2022/08/02 05:49:05;;;;;;;11.20;3.70;;;20.90;99.90;;;;;;5032624;28;20112;-63
2022/08/02 05:51:41;;;;;;;7.63;3.20;;;21.00;99.90;;;;;;5032587;28;20373;-63
2022/08/02 05:54:12;;;;;;;7.50;3.00;;;21.30;99.90;;;;;;5032989;28;20042;-63
2022/08/02 05:56:59;;;;;;;5.68;2.67;;;21.60;99.90;;;;;;5032638;28;20053;-63
2022/08/02 05:59:26;;;;;;;9.25;2.95;;;21.80;99.90;;;;;;5029022;28;20418;-64
2022/08/02 06:01:56;;;;;;;8.55;3.20;;;22.00;99.90;;;;;;5015330;28;20057;-63
2022/08/02 06:04:45;;;;;;;6.35;2.80;;;22.10;99.90;;;;;;5032834;28;20327;-64
2022/08/02 06:07:12;;;;;;;7.55;3.55;;;22.30;99.90;;;;;;5032447;28;20041;-64
2022/08/02 06:09:39;;;;;;;7.20;2.72;;;22.50;99.90;;;;;;5013660;28;20301;-64
2022/08/02 06:12:07;;;;;;;8.80;2.92;;;22.70;99.90;;;;;;5015468;28;20485;-64
2022/08/02 06:14:33;;;;;;;8.10;2.80;;;22.80;99.90;;;;;;5031971;28;20184;-63
2022/08/02 06:17:03;;;;;;;8.15;3.15;;;22.70;99.90;;;;;;5011360;28;20136;-64
2022/08/02 06:19:30;;;;;;;7.22;2.90;;;22.60;99.90;;;;;;5032799;28;20477;-64
2022/08/02 06:22:13;;;;;;;5.07;3.30;;;22.40;99.90;;;;;;5032860;28;20045;-63
2022/08/02 06:24:43;;;;;;;7.80;2.72;;;22.30;99.90;;;;;;5014672;28;20049;-63
2022/08/02 06:27:13;;;;;;;7.85;2.83;;;22.40;99.90;;;;;;5028921;28;20087;-63
2022/08/02 06:29:43;;;;;;;6.95;2.75;;;22.20;99.90;;;;;;5015493;28;20037;-63
2022/08/02 06:32:09;;;;;;;7.40;3.20;;;22.30;99.90;;;;;;5015527;28;20037;-63
2022/08/02 06:34:40;;;;;;;6.28;2.70;;;22.40;99.90;;;;;;5032486;28;20042;-63
2022/08/02 06:37:12;;;;;;;6.93;3.00;;;22.70;99.90;;;;;;5031173;28;20042;-63
2022/08/02 06:39:53;;;;;;;5.65;2.65;;;22.70;99.90;;;;;;5033038;28;20381;-64
2022/08/02 06:42:30;;;;;;;6.43;3.20;;;23.00;99.90;;;;;;5014853;28;20477;-63
2022/08/02 06:44:56;;;;;;;7.90;3.00;;;23.00;99.90;;;;;;5032581;28;20049;-64
2022/08/02 06:47:21;;;;;;;6.80;2.42;;;22.80;99.90;;;;;;5031378;28;20041;-65
2022/08/02 06:49:47;;;;;;;7.72;2.92;;;22.60;99.90;;;;;;5032963;28;20474;-64
2022/08/02 06:52:13;;;;;;;6.07;2.58;;;22.30;99.90;;;;;;5014373;28;20373;-63
2022/08/02 06:54:41;;;;;;;8.48;3.03;;;22.30;99.90;;;;;;5032004;28;20053;-64
2022/08/02 06:57:08;;;;;;;5.50;2.53;;;22.60;99.90;;;;;;5020780;28;20052;-64
2022/08/02 06:59:33;;;;;;;5.97;2.33;;;23.10;99.90;;;;;;5032716;28;20061;-63
2022/08/02 07:02:01;;;;;;;6.80;3.10;;;23.50;99.80;;;;;;5015157;28;20454;-63
2022/08/02 07:04:28;;;;;;;7.32;2.70;;;23.70;99.40;;;;;;5042558;28;20458;-64
2022/08/02 07:06:55;;;;;;;5.18;2.63;;;24.00;99.20;;;;;;5013486;28;20045;-64
2022/08/02 07:09:21;;;;;;;9.43;2.83;;;23.90;99.30;;;;;;5014821;28;20045;-64
2022/08/02 07:11:50;;;;;;;7.10;2.67;;;23.80;99.20;;;;;;5032106;28;20326;-63
2022/08/02 07:14:15;;;;;;;6.03;2.42;;;23.80;99.60;;;;;;5014324;28;20067;-64
2022/08/02 07:16:41;;;;;;;6.70;3.17;;;23.60;99.60;;;;;;5013254;28;20053;-65
2022/08/02 07:19:07;;;;;;;7.63;2.40;;;23.40;99.80;;;;;;4998217;28;20041;-63
2022/08/02 07:21:32;;;;;;;15.00;2.20;;;23.40;99.70;;;;;;5014439;28;20115;-63
2022/08/02 07:23:58;;;;;;;7.50;2.85;;;23.20;99.60;;;;;;5014191;28;20037;-63
2022/08/02 07:26:23;;;;;;;5.68;2.65;;;22.90;99.90;;;;;;5035521;28;20033;-64
2022/08/02 07:28:49;;;;;;;5.43;2.55;;;22.70;99.90;;;;;;5052312;28;20400;-63
2022/08/02 07:31:15;;;;;;;6.30;2.55;;;22.70;99.90;;;;;;5034599;28;20401;-64
2022/08/02 07:33:40;;;;;;;7.15;2.90;;;22.70;99.90;;;;;;5047173;28;20052;-63
2022/08/02 07:36:07;;;;;;;7.30;2.45;;;22.70;99.90;;;;;;5033277;28;20049;-64
2022/08/02 07:38:33;;;;;;;6.30;2.67;;;22.70;99.90;;;;;;5016485;28;20103;-63
2022/08/02 07:40:59;;;;;;;7.97;2.65;;;22.80;99.90;;;;;;5034549;28;20044;-63
2022/08/02 07:43:24;;;;;;;6.68;2.55;;;22.90;99.90;;;;;;5037842;28;20614;-64
2022/08/02 07:45:50;;;;;;;5.78;2.47;;;23.20;99.90;;;;;;5043191;28;20038;-66
2022/08/02 07:48:15;;;;;;;4.65;2.55;;;23.30;99.90;;;;;;5014612;28;20081;-63
2022/08/02 07:50:41;;;;;;;4.85;2.35;;;23.40;99.90;;;;;;5032400;28;20056;-63
2022/08/02 07:53:07;;;;;;;7.40;2.92;;;23.50;99.90;;;;;;5017581;28;20052;-66
2022/08/02 07:55:32;;;;;;;6.50;2.65;;;23.40;99.90;;;;;;5048770;28;20033;-64
2022/08/02 07:57:58;;;;;;;6.22;2.47;;;23.50;99.90;;;;;;5040096;28;20041;-64
2022/08/02 08:00:24;;;;;;;8.48;3.45;;;23.60;99.90;;;;;;5020104;28;20056;-64
2022/08/02 08:02:49;;;;;;;5.40;2.60;;;23.60;99.90;;;;;;5030712;28;20358;-63
2022/08/02 08:05:15;;;;;;;8.48;2.40;;;23.70;99.90;;;;;;5017208;28;20132;-64
2022/08/02 08:07:41;;;;;;;7.07;2.50;;;23.80;99.90;;;;;;5048170;28;20037;-64
2022/08/02 08:10:07;;;;;;;6.35;2.47;;;24.00;99.70;;;;;;5033396;28;20736;-64
2022/08/02 08:12:33;;;;;;;4.30;2.45;;;24.10;99.70;;;;;;5017587;28;20045;-63
2022/08/02 08:14:59;;;;;;;5.32;2.45;;;24.10;99.70;;;;;;5039669;28;20465;-64
2022/08/02 08:17:27;;;;;;;9.05;2.90;;;24.30;99.90;;;;;;5027774;28;20199;-65
2022/08/02 08:19:55;;;;;;;7.30;3.00;;;24.30;99.80;;;;;;5000932;28;20132;-64
2022/08/02 08:22:20;;;;;;;6.40;2.72;;;24.30;99.90;;;;;;5042789;28;20041;-63
2022/08/02 08:24:46;;;;;;;7.03;2.88;;;24.40;99.90;;;;;;5032519;28;20056;-64
2022/08/02 08:27:14;;;;;;;7.47;3.25;;;24.40;99.90;;;;;;5019885;28;20044;-64
2022/08/02 08:29:41;;;;;;;5.53;2.95;;;24.50;99.90;;;;;;5051580;28;20057;-64
2022/08/02 08:32:07;;;;;;;6.90;3.00;;;24.40;99.90;;;;;;5028235;28;20176;-64
2022/08/02 08:34:33;;;;;;;5.50;2.88;;;24.50;99.90;;;;;;5024961;28;20041;-64
2022/08/02 08:37:02;;;;;;;7.78;3.45;;;24.50;99.90;;;;;;5018507;28;20037;-64
2022/08/02 08:39:28;;;;;;;7.28;2.88;;;24.70;99.90;;;;;;5041337;28;20048;-64
2022/08/02 08:41:54;;;;;;;6.32;2.90;;;24.80;99.90;;;;;;5050406;28;20041;-64
2022/08/02 08:44:20;;;;;;;5.22;2.80;;;24.70;99.90;;;;;;5025431;28;20038;-64
2022/08/02 08:46:48;;;;;;;6.28;2.67;;;24.80;99.90;;;;;;5020538;28;20059;-64
2022/08/02 08:49:29;;;;;;;8.82;2.78;;;24.80;99.40;;;;;;5009013;28;20100;-64
2022/08/02 08:51:57;;;;;;;6.30;2.60;;;24.80;99.70;;;;;;5037149;28;20080;-63
2022/08/02 08:54:28;;;;;;;7.95;2.70;;;25.00;99.70;;;;;;5016451;28;20045;-64
2022/08/02 08:56:55;;;;;;;6.70;2.72;;;25.10;99.70;;;;;;5019478;28;20033;-63
2022/08/02 08:59:21;;;;;;;6.85;2.83;;;25.10;99.40;;;;;;5001390;28;20073;-63
2022/08/02 09:01:49;;;;;;;5.85;2.60;;;25.20;99.20;;;;;;5019918;28;20485;-63
2022/08/02 09:04:14;;;;;;;7.60;2.97;;;25.20;99.30;;;;;;5036474;28;20066;-64
2022/08/02 09:06:40;;;;;;;6.03;3.00;;;25.30;99.30;;;;;;5017043;28;20051;-63
2022/08/02 09:09:06;;;;;;;6.15;2.90;;;25.40;99.20;;;;;;5037538;28;20050;-63
2022/08/02 09:11:35;;;;;;;8.57;3.03;;;25.50;99.10;;;;;;5022714;28;20120;-64
2022/08/02 09:14:02;;;;;;;6.10;3.00;;;25.50;99.30;;;;;;5033373;28;20392;-63
2022/08/02 09:16:42;;;;;;;5.30;2.72;;;25.50;99.30;;;;;;5033146;28;20069;-63
2022/08/02 09:19:25;;;;;;;8.98;3.05;;;25.70;99.60;;;;;;5019402;28;20373;-63
2022/08/02 09:22:01;;;;;;;8.40;3.40;;;25.70;99.20;;;;;;5016462;28;20050;-65
2022/08/02 09:24:27;;;;;;;7.65;3.47;;;25.60;99.20;;;;;;5000993;28;20042;-64
2022/08/02 09:26:52;;;;;;;9.02;2.97;;;25.50;99.80;;;;;;5022666;28;20042;-64
2022/08/02 09:29:22;;;;;;;6.22;2.97;;;25.60;99.60;;;;;;5031890;28;20158;-65
2022/08/02 09:31:49;;;;;;;8.27;3.00;;;25.60;99.60;;;;;;5019750;28;20470;-64
2022/08/02 09:34:18;;;;;;;7.70;2.95;;;25.80;99.80;;;;;;5011494;28;20045;-65
2022/08/02 09:36:46;;;;;;;7.78;3.45;;;25.90;99.50;;;;;;5017501;28;20040;-64
2022/08/02 09:39:14;;;;;;;6.07;3.20;;;25.90;99.50;;;;;;5001015;28;20041;-64
2022/08/02 09:41:41;;;;;;;5.53;3.00;;;26.00;99.40;;;;;;5014412;28;20073;-65
2022/08/02 09:44:16;;;;;;;5.90;3.25;;;26.10;99.40;;;;;;4997161;28;20042;-65
2022/08/02 09:46:44;;;;;;;5.97;3.47;;;26.10;99.50;;;;;;5015609;28;20069;-65
2022/08/02 09:49:11;;;;;;;5.78;2.88;;;26.20;99.50;;;;;;5019512;28;20045;-64
2022/08/02 09:51:49;;;;;;;7.05;2.92;;;26.30;99.40;;;;;;5040344;28;20041;-65
2022/08/02 09:54:18;;;;;;;4.85;2.97;;;26.30;99.50;;;;;;5033562;28;20052;-65
2022/08/02 09:56:48;;;;;;;6.80;3.38;;;26.30;99.40;;;;;;5022694;28;20048;-64
2022/08/02 09:59:14;;;;;;;7.13;3.67;;;26.20;99.50;;;;;;5027952;28;20038;-66
2022/08/02 10:01:41;;;;;;;8.48;3.42;;;26.10;99.60;;;;;;5013739;28;20041;-64
2022/08/02 10:04:10;;;;;;;6.38;3.03;;;26.10;99.60;;;;;;5015852;28;20060;-65
2022/08/02 10:06:37;;;;;;;6.30;3.33;;;26.10;99.70;;;;;;5014709;28;20044;-64
2022/08/02 10:09:04;;;;;;;6.55;3.15;;;26.10;99.70;;;;;;5004268;28;20033;-65
2022/08/02 10:11:31;;;;;;;6.10;3.55;;;26.20;99.70;;;;;;5022350;28;20091;-64
2022/08/02 10:13:57;;;;;;;6.13;3.00;;;26.30;99.90;;;;;;5031662;28;20048;-65
2022/08/02 10:16:24;;;;;;;5.45;3.42;;;26.50;99.70;;;;;;5013154;28;20071;-65
2022/08/02 10:18:51;;;;;;;8.70;3.83;;;26.60;99.70;;;;;;5015685;28;20044;-64
2022/08/02 10:21:29;;;;;;;4.53;3.15;;;26.50;99.70;;;;;;5032847;28;20041;-66
2022/08/02 10:24:17;;;;;;;6.68;3.40;;;26.60;99.90;;;;;;5035051;28;20041;-66
2022/08/02 10:26:45;;;;;;;5.85;2.47;;;26.80;99.70;;;;;;5014204;28;20140;-65
2022/08/02 10:29:17;;;;;;;4.85;2.17;;;26.90;98.40;;;;;;4996143;28;20048;-64
2022/08/02 10:31:52;;;;;;;5.75;2.30;;;26.90;98.40;;;;;;5033054;28;20389;-65
2022/08/02 10:34:26;;;;;;;7.18;2.10;;;26.90;97.50;;;;;;5032219;28;20528;-65
2022/08/02 10:36:51;;;;;;;;;;;26.80;97.40;;;;;;5014369;28;20366;-64
2022/08/02 10:39:17;;;;;;;3.10;1.98;;;26.60;97.70;;;;;;5015057;28;19921;-65
2022/08/02 10:41:51;;;;;;;3.55;2.05;;;26.50;97.80;;;;;;5014971;28;20056;-64
2022/08/02 10:44:31;;;;;;;4.05;2.92;;;26.40;98.00;;;;;;5032015;28;20056;-65
2022/08/02 10:47:26;;;;;;;4.55;3.05;;;26.40;98.90;;;;;;5013552;28;20595;-64
2022/08/02 10:49:57;;;;;;;5.47;3.05;;;26.30;99.30;;;;;;5018902;28;20045;-64
2022/08/02 10:52:26;;;;;;;7.13;3.95;;;26.30;99.90;;;;;;5014594;28;20120;-64
2022/08/02 10:54:59;;;;;;;6.70;4.10;;;26.50;99.90;;;;;;5017985;28;20416;-65
2022/08/02 10:57:30;;;;;;;7.45;4.07;;;26.50;99.90;;;;;;5012694;28;20156;-64
2022/08/02 11:00:11;;;;;;;6.75;4.10;;;26.50;99.90;;;;;;5032534;28;20148;-64
2022/08/02 11:02:46;;;;;;;5.75;3.60;;;26.50;99.50;;;;;;5030475;28;20045;-64
2022/08/02 11:05:27;;;;;;;5.80;3.30;;;26.60;99.90;;;;;;5010741;28;20052;-64
2022/08/02 11:07:52;;;;;;;9.13;4.60;;;26.80;99.90;;;;;;5004043;28;20347;-63
2022/08/02 11:10:38;;;;;;;9.68;4.57;;;26.80;99.90;;;;;;5032160;28;20486;-64
2022/08/02 11:13:06;;;;;;;5.45;4.00;;;26.80;99.60;;;;;;5032337;28;20289;-63
2022/08/02 11:15:49;;;;;;;4.95;3.70;;;26.60;99.80;;;;;;5013415;28;20064;-64
2022/08/02 11:18:15;;;;;;;7.28;5.35;;;26.60;99.90;;;;;;5013841;28;20363;-64
2022/08/02 11:20:41;;;;;;;8.68;3.90;;;26.50;99.90;;;;;;5014469;28;20055;-64
2022/08/02 11:23:36;;;;;;;6.03;4.50;;;26.60;99.90;;;;;;5031519;28;20064;-64
2022/08/02 11:26:29;;;;;;;7.93;4.43;;;26.50;99.90;;;;;;5004872;28;20087;-65
2022/08/02 11:28:55;;;;;;;7.83;4.27;;;26.60;99.90;;;;;;5014100;28;20530;-63
2022/08/02 11:31:21;;;;;;;6.82;4.03;;;26.70;99.90;;;;;;5014473;28;20073;-63
2022/08/02 11:33:49;;;;;;;6.93;4.82;;;26.80;99.80;;;;;;4997358;28;20081;-63
2022/08/02 11:36:15;;;;;;;6.07;4.18;;;26.80;99.80;;;;;;5013581;28;20045;-64
2022/08/02 11:38:41;;;;;;;5.43;3.78;;;26.60;99.70;;;;;;4997804;28;20034;-63
2022/08/02 11:41:08;;;;;;;5.88;3.13;;;26.50;99.70;;;;;;5014284;28;20115;-62
2022/08/02 11:43:35;;;;;;;4.85;3.00;;;26.60;99.90;;;;;;5013830;28;20529;-62
2022/08/02 11:46:10;;;;;;;4.30;2.85;;;26.70;99.50;;;;;;5027139;28;20462;-62
2022/08/02 11:48:39;;;;;;;5.30;2.80;;;26.80;99.50;;;;;;5009064;28;20041;-62
2022/08/02 11:51:14;;;;;;;4.03;2.53;;;26.80;99.40;;;;;;5031999;28;20067;-62
2022/08/02 11:53:51;;;;;;;5.35;3.30;;;26.90;99.70;;;;;;5026237;28;20045;-62
2022/08/02 11:56:28;;;;;;;3.90;2.78;;;26.90;99.30;;;;;;5007934;28;20096;-62
2022/08/02 11:59:09;;;;;;;4.63;2.67;;;26.80;99.40;;;;;;5011990;28;20061;-62
2022/08/02 12:01:36;;;;;;;5.47;3.70;;;26.70;99.60;;;;;;4997556;28;20474;-61
2022/08/02 12:04:03;;;;;;;7.18;3.30;;;26.60;99.50;;;;;;5014087;28;20075;-62
2022/08/02 12:06:30;;;;;;;5.40;3.20;;;26.60;99.80;;;;;;5005848;28;20382;-62
2022/08/02 12:09:11;;;;;;;6.95;2.88;;;26.70;99.90;;;;;;5030208;28;20040;-61
2022/08/02 12:11:37;;;;;;;6.70;3.28;;;26.80;99.90;;;;;;5013612;28;20077;-61
2022/08/02 12:14:04;;;;;;;4.53;3.47;;;26.90;99.90;;;;;;5031499;28;20030;-62
2022/08/02 12:19:22;;;;;;;5.35;3.38;;;27.10;99.90;;;;;;5027458;28;20701;-62
2022/08/02 12:22:05;;;;;;;5.55;3.75;;;27.20;99.90;;;;;;5017443;28;20061;-61
2022/08/02 12:24:31;;;;;;;5.38;3.35;;;27.20;99.90;;;;;;5043513;28;20084;-61
2022/08/02 12:26:57;;;;;;;5.65;3.72;;;27.20;99.90;;;;;;5016140;28;20068;-63
2022/08/02 12:29:30;;;;;;;6.63;3.72;;;27.20;99.90;;;;;;5054919;28;20041;-61
2022/08/02 12:31:55;;;;;;;;;;;27.20;99.90;;;;;;5055757;28;20132;-62
2022/08/02 12:34:22;;;;;;;5.75;3.75;;;27.20;99.90;;;;;;5037104;28;20009;-61
2022/08/02 12:37:09;;;;;;;6.53;3.95;;;27.10;99.90;;;;;;5044489;28;20069;-61
2022/08/02 12:39:43;;;;;;;8.57;4.13;;;27.10;99.90;;;;;;5028375;28;20128;-61
2022/08/02 12:42:10;;;;;;;8.30;4.10;;;27.00;99.90;;;;;;5054377;28;20472;-60
2022/08/02 12:44:51;;;;;;;9.15;4.30;;;27.00;99.90;;;;;;5017758;28;20048;-61
2022/08/02 12:47:17;;;;;;;7.50;4.90;;;26.90;99.90;;;;;;5016406;28;20370;-61
2022/08/02 12:49:42;;;;;;;6.80;4.97;;;26.70;99.90;;;;;;5015143;28;20060;-60
2022/08/02 12:52:19;;;;;;;7.97;5.43;;;26.70;99.90;;;;;;5015385;28;20038;-61
2022/08/02 12:54:47;;;;;;;7.32;4.97;;;26.70;99.90;;;;;;5015068;28;20385;-60
2022/08/02 12:57:15;;;;;;;7.55;5.40;;;26.80;99.90;;;;;;5005616;28;20034;-61
2022/08/02 12:59:45;;;;;;;7.85;6.15;;;26.90;99.90;;;;;;5017522;28;20059;-60